sensor_id;sensor_type;location;lat;lon;timestamp;P1;durP1;ratioP1;P2;durP2;ratioP2
21162;SDS011;10739;52.198;20.908;2022-09-09T00:04:56;10.57;;;6.20;;
21162;SDS011;10739;52.198;20.908;2022-09-09T00:07:43;13.13;;;6.65;;
21162;SDS011;10739;52.198;20.908;2022-09-09T00:10:26;11.60;;;6.13;;
21162;SDS011;10739;52.198;20.908;2022-09-09T00:13:16;11.45;;;7.32;;
21162;SDS011;10739;52.198;20.908;2022-09-09T00:16:19;11.07;;;6.00;;
21162;SDS011;10739;52.198;20.908;2022-09-09T00:21:58;9.55;;;7.07;;
21162;SDS011;10739;52.198;20.908;2022-09-09T00:24:46;12.98;;;7.43;;
21162;SDS011;10739;52.198;20.908;2022-09-09T00:27:24;15.52;;;7.78;;
21162;SDS011;10739;52.198;20.908;2022-09-09T00:32:48;10.60;;;7.40;;
21162;SDS011;10739;52.198;20.908;2022-09-09T00:35:24;15.57;;;7.57;;
21162;SDS011;10739;52.198;20.908;2022-09-09T00:38:05;11.38;;;7.75;;
21162;SDS011;10739;52.198;20.908;2022-09-09T00:41:21;15.65;;;8.02;;
21162;SDS011;10739;52.198;20.908;2022-09-09T00:44:01;12.73;;;8.20;;
21162;SDS011;10739;52.198;20.908;2022-09-09T00:49:25;14.18;;;8.43;;
21162;SDS011;10739;52.198;20.908;2022-09-09T00:58:18;15.55;;;9.75;;
21162;SDS011;10739;52.198;20.908;2022-09-09T01:00:45;14.07;;;8.30;;
21162;SDS011;10739;52.198;20.908;2022-09-09T01:03:34;17.17;;;9.77;;
21162;SDS011;10739;52.198;20.908;2022-09-09T01:06:34;15.70;;;10.15;;
21162;SDS011;10739;52.198;20.908;2022-09-09T01:12:23;16.88;;;10.15;;
21162;SDS011;10739;52.198;20.908;2022-09-09T01:15:27;16.90;;;10.85;;
21162;SDS011;10739;52.198;20.908;2022-09-09T01:18:10;17.05;;;9.93;;
21162;SDS011;10739;52.198;20.908;2022-09-09T01:26:47;17.48;;;10.55;;
21162;SDS011;10739;52.198;20.908;2022-09-09T01:29:18;17.38;;;10.80;;
21162;SDS011;10739;52.198;20.908;2022-09-09T01:32:00;18.52;;;10.82;;
21162;SDS011;10739;52.198;20.908;2022-09-09T01:34:48;20.95;;;11.15;;
21162;SDS011;10739;52.198;20.908;2022-09-09T01:37:16;18.77;;;11.63;;
21162;SDS011;10739;52.198;20.908;2022-09-09T01:39:43;18.27;;;11.77;;
21162;SDS011;10739;52.198;20.908;2022-09-09T01:42:12;18.40;;;10.82;;
21162;SDS011;10739;52.198;20.908;2022-09-09T01:44:42;20.38;;;12.18;;
21162;SDS011;10739;52.198;20.908;2022-09-09T01:47:08;17.67;;;12.23;;
21162;SDS011;10739;52.198;20.908;2022-09-09T01:49:34;16.95;;;11.32;;
21162;SDS011;10739;52.198;20.908;2022-09-09T01:52:01;18.35;;;11.48;;
21162;SDS011;10739;52.198;20.908;2022-09-09T01:54:29;18.88;;;11.50;;
21162;SDS011;10739;52.198;20.908;2022-09-09T02:05:40;14.68;;;10.43;;
21162;SDS011;10739;52.198;20.908;2022-09-09T02:08:15;21.05;;;11.15;;
21162;SDS011;10739;52.198;20.908;2022-09-09T02:11:13;20.25;;;11.80;;
21162;SDS011;10739;52.198;20.908;2022-09-09T02:13:44;18.30;;;11.13;;
21162;SDS011;10739;52.198;20.908;2022-09-09T02:16:17;18.38;;;11.35;;
21162;SDS011;10739;52.198;20.908;2022-09-09T02:21:39;20.10;;;12.40;;
21162;SDS011;10739;52.198;20.908;2022-09-09T02:24:10;18.10;;;11.43;;
21162;SDS011;10739;52.198;20.908;2022-09-09T02:26:41;19.55;;;12.38;;
21162;SDS011;10739;52.198;20.908;2022-09-09T02:29:13;18.35;;;12.10;;
21162;SDS011;10739;52.198;20.908;2022-09-09T02:31:48;17.48;;;11.90;;
21162;SDS011;10739;52.198;20.908;2022-09-09T02:34:17;18.55;;;12.45;;
21162;SDS011;10739;52.198;20.908;2022-09-09T02:36:48;16.75;;;11.98;;
21162;SDS011;10739;52.198;20.908;2022-09-09T02:39:19;20.65;;;12.48;;
21162;SDS011;10739;52.198;20.908;2022-09-09T02:41:45;23.27;;;13.25;;
21162;SDS011;10739;52.198;20.908;2022-09-09T02:44:16;20.50;;;13.10;;
21162;SDS011;10739;52.198;20.908;2022-09-09T02:50:06;17.65;;;13.07;;
21162;SDS011;10739;52.198;20.908;2022-09-09T02:53:17;19.20;;;13.35;;
21162;SDS011;10739;52.198;20.908;2022-09-09T02:55:54;20.48;;;14.25;;
21162;SDS011;10739;52.198;20.908;2022-09-09T02:58:30;18.92;;;14.57;;
21162;SDS011;10739;52.198;20.908;2022-09-09T03:00:58;25.73;;;14.55;;
21162;SDS011;10739;52.198;20.908;2022-09-09T03:03:28;20.38;;;14.05;;
21162;SDS011;10739;52.198;20.908;2022-09-09T03:05:55;19.95;;;14.02;;
21162;SDS011;10739;52.198;20.908;2022-09-09T03:08:22;19.10;;;13.52;;
21162;SDS011;10739;52.198;20.908;2022-09-09T03:10:48;16.52;;;12.75;;
21162;SDS011;10739;52.198;20.908;2022-09-09T03:13:15;17.83;;;13.43;;
21162;SDS011;10739;52.198;20.908;2022-09-09T03:15:44;17.08;;;12.63;;
21162;SDS011;10739;52.198;20.908;2022-09-09T03:18:10;15.05;;;12.43;;
21162;SDS011;10739;52.198;20.908;2022-09-09T03:20:37;17.35;;;12.43;;
21162;SDS011;10739;52.198;20.908;2022-09-09T03:23:03;18.83;;;13.32;;
21162;SDS011;10739;52.198;20.908;2022-09-09T03:25:29;21.55;;;12.88;;
21162;SDS011;10739;52.198;20.908;2022-09-09T03:27:55;20.45;;;13.50;;
21162;SDS011;10739;52.198;20.908;2022-09-09T03:30:23;20.42;;;13.20;;
21162;SDS011;10739;52.198;20.908;2022-09-09T03:32:52;19.48;;;12.98;;
21162;SDS011;10739;52.198;20.908;2022-09-09T03:35:20;17.67;;;12.68;;
21162;SDS011;10739;52.198;20.908;2022-09-09T03:37:46;18.42;;;12.70;;
21162;SDS011;10739;52.198;20.908;2022-09-09T03:40:13;19.30;;;13.73;;
21162;SDS011;10739;52.198;20.908;2022-09-09T03:42:40;16.20;;;12.15;;
21162;SDS011;10739;52.198;20.908;2022-09-09T03:45:07;18.48;;;13.07;;
21162;SDS011;10739;52.198;20.908;2022-09-09T03:47:36;15.73;;;12.40;;
21162;SDS011;10739;52.198;20.908;2022-09-09T03:50:03;17.45;;;11.50;;
21162;SDS011;10739;52.198;20.908;2022-09-09T03:52:39;15.57;;;10.63;;
21162;SDS011;10739;52.198;20.908;2022-09-09T03:55:07;17.58;;;12.68;;
21162;SDS011;10739;52.198;20.908;2022-09-09T03:57:34;14.50;;;12.15;;
21162;SDS011;10739;52.198;20.908;2022-09-09T04:00:04;15.23;;;12.73;;
21162;SDS011;10739;52.198;20.908;2022-09-09T04:02:33;17.55;;;13.15;;
21162;SDS011;10739;52.198;20.908;2022-09-09T04:04:59;15.90;;;12.82;;
21162;SDS011;10739;52.198;20.908;2022-09-09T04:07:26;18.50;;;13.85;;
21162;SDS011;10739;52.198;20.908;2022-09-09T04:09:53;18.63;;;12.63;;
21162;SDS011;10739;52.198;20.908;2022-09-09T04:12:20;16.50;;;12.80;;
21162;SDS011;10739;52.198;20.908;2022-09-09T04:14:46;18.98;;;13.98;;
21162;SDS011;10739;52.198;20.908;2022-09-09T04:17:12;17.92;;;13.15;;
21162;SDS011;10739;52.198;20.908;2022-09-09T04:19:38;16.17;;;13.85;;
21162;SDS011;10739;52.198;20.908;2022-09-09T04:22:04;16.73;;;12.98;;
21162;SDS011;10739;52.198;20.908;2022-09-09T04:24:30;19.27;;;13.73;;
21162;SDS011;10739;52.198;20.908;2022-09-09T04:26:57;19.08;;;13.45;;
21162;SDS011;10739;52.198;20.908;2022-09-09T04:29:23;16.70;;;13.20;;
21162;SDS011;10739;52.198;20.908;2022-09-09T04:31:49;17.40;;;13.48;;
21162;SDS011;10739;52.198;20.908;2022-09-09T04:34:15;16.83;;;12.45;;
21162;SDS011;10739;52.198;20.908;2022-09-09T04:36:42;17.83;;;12.98;;
21162;SDS011;10739;52.198;20.908;2022-09-09T04:39:08;21.50;;;13.82;;
21162;SDS011;10739;52.198;20.908;2022-09-09T04:41:35;20.30;;;13.13;;
21162;SDS011;10739;52.198;20.908;2022-09-09T04:44:01;17.88;;;13.82;;
21162;SDS011;10739;52.198;20.908;2022-09-09T04:46:27;15.23;;;11.93;;
21162;SDS011;10739;52.198;20.908;2022-09-09T04:48:53;16.70;;;13.48;;
21162;SDS011;10739;52.198;20.908;2022-09-09T04:51:20;19.85;;;13.93;;
21162;SDS011;10739;52.198;20.908;2022-09-09T04:53:46;17.65;;;13.43;;
21162;SDS011;10739;52.198;20.908;2022-09-09T04:56:15;15.10;;;12.23;;
21162;SDS011;10739;52.198;20.908;2022-09-09T04:58:42;14.50;;;12.02;;
21162;SDS011;10739;52.198;20.908;2022-09-09T05:01:13;15.70;;;11.57;;
21162;SDS011;10739;52.198;20.908;2022-09-09T05:03:43;16.55;;;12.27;;
21162;SDS011;10739;52.198;20.908;2022-09-09T05:06:12;15.18;;;12.13;;
21162;SDS011;10739;52.198;20.908;2022-09-09T05:08:41;18.65;;;13.57;;
21162;SDS011;10739;52.198;20.908;2022-09-09T05:13:44;15.60;;;11.82;;
21162;SDS011;10739;52.198;20.908;2022-09-09T05:16:12;13.13;;;11.60;;
21162;SDS011;10739;52.198;20.908;2022-09-09T05:18:39;15.48;;;12.52;;
21162;SDS011;10739;52.198;20.908;2022-09-09T05:21:08;16.35;;;11.82;;
21162;SDS011;10739;52.198;20.908;2022-09-09T05:23:39;14.10;;;11.85;;
21162;SDS011;10739;52.198;20.908;2022-09-09T05:26:06;18.38;;;12.98;;
21162;SDS011;10739;52.198;20.908;2022-09-09T05:28:37;20.92;;;12.57;;
21162;SDS011;10739;52.198;20.908;2022-09-09T05:31:04;17.55;;;12.43;;
21162;SDS011;10739;52.198;20.908;2022-09-09T05:33:34;19.77;;;11.80;;
21162;SDS011;10739;52.198;20.908;2022-09-09T05:36:02;14.10;;;11.38;;
21162;SDS011;10739;52.198;20.908;2022-09-09T05:38:33;15.20;;;12.63;;
21162;SDS011;10739;52.198;20.908;2022-09-09T05:41:01;15.13;;;13.48;;
21162;SDS011;10739;52.198;20.908;2022-09-09T05:43:29;18.25;;;12.77;;
21162;SDS011;10739;52.198;20.908;2022-09-09T05:46:01;16.98;;;11.90;;
21162;SDS011;10739;52.198;20.908;2022-09-09T05:48:37;15.18;;;12.32;;
21162;SDS011;10739;52.198;20.908;2022-09-09T05:51:14;15.07;;;12.00;;
21162;SDS011;10739;52.198;20.908;2022-09-09T05:53:44;21.08;;;12.82;;
21162;SDS011;10739;52.198;20.908;2022-09-09T05:56:12;15.82;;;12.05;;
21162;SDS011;10739;52.198;20.908;2022-09-09T05:58:43;14.80;;;11.73;;
21162;SDS011;10739;52.198;20.908;2022-09-09T06:01:13;16.50;;;13.00;;
21162;SDS011;10739;52.198;20.908;2022-09-09T06:03:47;15.27;;;11.93;;
21162;SDS011;10739;52.198;20.908;2022-09-09T06:06:16;16.73;;;12.32;;
21162;SDS011;10739;52.198;20.908;2022-09-09T06:08:55;15.20;;;12.50;;
21162;SDS011;10739;52.198;20.908;2022-09-09T06:11:24;17.95;;;13.27;;
21162;SDS011;10739;52.198;20.908;2022-09-09T06:13:56;18.40;;;12.35;;
21162;SDS011;10739;52.198;20.908;2022-09-09T06:16:23;17.92;;;13.77;;
21162;SDS011;10739;52.198;20.908;2022-09-09T06:18:53;15.10;;;13.50;;
21162;SDS011;10739;52.198;20.908;2022-09-09T06:21:35;14.37;;;11.90;;
21162;SDS011;10739;52.198;20.908;2022-09-09T06:24:03;15.25;;;12.43;;
21162;SDS011;10739;52.198;20.908;2022-09-09T06:26:31;16.30;;;13.48;;
21162;SDS011;10739;52.198;20.908;2022-09-09T06:29:00;15.27;;;12.57;;
21162;SDS011;10739;52.198;20.908;2022-09-09T06:31:29;15.55;;;12.55;;
21162;SDS011;10739;52.198;20.908;2022-09-09T06:33:59;16.17;;;12.52;;
21162;SDS011;10739;52.198;20.908;2022-09-09T06:36:30;17.85;;;12.93;;
21162;SDS011;10739;52.198;20.908;2022-09-09T06:38:59;20.52;;;13.32;;
21162;SDS011;10739;52.198;20.908;2022-09-09T06:41:27;14.10;;;12.63;;
21162;SDS011;10739;52.198;20.908;2022-09-09T06:43:56;16.08;;;14.32;;
21162;SDS011;10739;52.198;20.908;2022-09-09T06:46:23;15.15;;;13.55;;
21162;SDS011;10739;52.198;20.908;2022-09-09T06:48:56;16.45;;;14.55;;
21162;SDS011;10739;52.198;20.908;2022-09-09T06:51:32;16.70;;;14.52;;
21162;SDS011;10739;52.198;20.908;2022-09-09T06:54:01;18.63;;;14.88;;
21162;SDS011;10739;52.198;20.908;2022-09-09T06:56:30;16.05;;;14.35;;
21162;SDS011;10739;52.198;20.908;2022-09-09T06:59:08;16.58;;;14.60;;
21162;SDS011;10739;52.198;20.908;2022-09-09T07:01:36;17.83;;;15.45;;
21162;SDS011;10739;52.198;20.908;2022-09-09T07:04:09;19.83;;;14.68;;
21162;SDS011;10739;52.198;20.908;2022-09-09T07:06:37;19.23;;;15.23;;
21162;SDS011;10739;52.198;20.908;2022-09-09T07:09:09;16.80;;;15.02;;
21162;SDS011;10739;52.198;20.908;2022-09-09T07:11:42;17.95;;;15.82;;
21162;SDS011;10739;52.198;20.908;2022-09-09T07:14:12;19.80;;;14.60;;
21162;SDS011;10739;52.198;20.908;2022-09-09T07:16:39;20.50;;;16.30;;
21162;SDS011;10739;52.198;20.908;2022-09-09T07:19:07;19.98;;;15.73;;
21162;SDS011;10739;52.198;20.908;2022-09-09T07:21:33;24.00;;;16.55;;
21162;SDS011;10739;52.198;20.908;2022-09-09T07:24:00;19.17;;;15.48;;
21162;SDS011;10739;52.198;20.908;2022-09-09T07:26:29;19.73;;;15.85;;
21162;SDS011;10739;52.198;20.908;2022-09-09T07:28:56;18.85;;;15.40;;
21162;SDS011;10739;52.198;20.908;2022-09-09T07:31:24;26.02;;;17.27;;
21162;SDS011;10739;52.198;20.908;2022-09-09T07:33:56;23.15;;;17.38;;
21162;SDS011;10739;52.198;20.908;2022-09-09T07:36:26;21.27;;;17.65;;
21162;SDS011;10739;52.198;20.908;2022-09-09T07:39:05;29.40;;;17.17;;
21162;SDS011;10739;52.198;20.908;2022-09-09T07:41:42;23.98;;;17.75;;
21162;SDS011;10739;52.198;20.908;2022-09-09T07:44:14;21.15;;;16.85;;
21162;SDS011;10739;52.198;20.908;2022-09-09T07:46:45;21.50;;;17.00;;
21162;SDS011;10739;52.198;20.908;2022-09-09T07:49:11;25.55;;;18.30;;
21162;SDS011;10739;52.198;20.908;2022-09-09T07:51:39;24.17;;;17.35;;
21162;SDS011;10739;52.198;20.908;2022-09-09T07:54:11;25.80;;;17.52;;
21162;SDS011;10739;52.198;20.908;2022-09-09T07:56:40;25.65;;;18.88;;
21162;SDS011;10739;52.198;20.908;2022-09-09T07:59:08;22.88;;;17.92;;
21162;SDS011;10739;52.198;20.908;2022-09-09T08:01:35;22.05;;;17.98;;
21162;SDS011;10739;52.198;20.908;2022-09-09T08:04:06;39.00;;;18.17;;
21162;SDS011;10739;52.198;20.908;2022-09-09T08:06:41;23.95;;;18.63;;
21162;SDS011;10739;52.198;20.908;2022-09-09T08:09:11;26.42;;;17.45;;
21162;SDS011;10739;52.198;20.908;2022-09-09T08:11:39;26.70;;;19.42;;
21162;SDS011;10739;52.198;20.908;2022-09-09T08:14:07;22.92;;;18.80;;
21162;SDS011;10739;52.198;20.908;2022-09-09T08:16:38;23.92;;;17.25;;
21162;SDS011;10739;52.198;20.908;2022-09-09T08:19:07;25.25;;;19.42;;
21162;SDS011;10739;52.198;20.908;2022-09-09T08:21:35;26.13;;;18.73;;
21162;SDS011;10739;52.198;20.908;2022-09-09T08:24:04;24.83;;;17.52;;
21162;SDS011;10739;52.198;20.908;2022-09-09T08:26:37;27.05;;;17.83;;
21162;SDS011;10739;52.198;20.908;2022-09-09T08:29:09;28.77;;;18.88;;
21162;SDS011;10739;52.198;20.908;2022-09-09T08:31:39;26.38;;;20.02;;
21162;SDS011;10739;52.198;20.908;2022-09-09T08:34:19;28.60;;;18.80;;
21162;SDS011;10739;52.198;20.908;2022-09-09T08:36:47;30.48;;;19.02;;
21162;SDS011;10739;52.198;20.908;2022-09-09T08:39:16;30.27;;;20.60;;
21162;SDS011;10739;52.198;20.908;2022-09-09T08:42:19;32.63;;;20.88;;
21162;SDS011;10739;52.198;20.908;2022-09-09T08:47:50;27.63;;;20.13;;
21162;SDS011;10739;52.198;20.908;2022-09-09T08:50:35;26.60;;;19.23;;
21162;SDS011;10739;52.198;20.908;2022-09-09T08:53:16;24.73;;;18.73;;
21162;SDS011;10739;52.198;20.908;2022-09-09T08:55:53;23.67;;;18.67;;
21162;SDS011;10739;52.198;20.908;2022-09-09T08:58:27;29.88;;;20.30;;
21162;SDS011;10739;52.198;20.908;2022-09-09T09:12:44;33.80;;;23.15;;
21162;SDS011;10739;52.198;20.908;2022-09-09T09:15:20;28.00;;;21.23;;
21162;SDS011;10739;52.198;20.908;2022-09-09T09:17:55;36.33;;;22.95;;
21162;SDS011;10739;52.198;20.908;2022-09-09T09:20:33;30.58;;;21.92;;
21162;SDS011;10739;52.198;20.908;2022-09-09T09:23:09;32.13;;;21.95;;
21162;SDS011;10739;52.198;20.908;2022-09-09T09:25:48;35.15;;;22.58;;
21162;SDS011;10739;52.198;20.908;2022-09-09T09:28:23;29.45;;;21.30;;
21162;SDS011;10739;52.198;20.908;2022-09-09T09:33:55;37.13;;;22.83;;
21162;SDS011;10739;52.198;20.908;2022-09-09T09:36:24;34.40;;;23.38;;
21162;SDS011;10739;52.198;20.908;2022-09-09T09:39:23;37.05;;;23.40;;
21162;SDS011;10739;52.198;20.908;2022-09-09T09:41:53;32.95;;;23.55;;
21162;SDS011;10739;52.198;20.908;2022-09-09T09:44:23;37.05;;;23.90;;
21162;SDS011;10739;52.198;20.908;2022-09-09T09:47:05;39.55;;;24.52;;
21162;SDS011;10739;52.198;20.908;2022-09-09T09:49:39;34.20;;;23.58;;
21162;SDS011;10739;52.198;20.908;2022-09-09T09:52:22;36.28;;;25.15;;
21162;SDS011;10739;52.198;20.908;2022-09-09T09:54:52;40.58;;;24.95;;
21162;SDS011;10739;52.198;20.908;2022-09-09T09:57:22;36.53;;;23.75;;
21162;SDS011;10739;52.198;20.908;2022-09-09T10:02:43;40.95;;;24.50;;
21162;SDS011;10739;52.198;20.908;2022-09-09T10:05:30;36.35;;;23.73;;
21162;SDS011;10739;52.198;20.908;2022-09-09T10:17:02;45.85;;;26.02;;
21162;SDS011;10739;52.198;20.908;2022-09-09T10:20:17;43.55;;;26.33;;
21162;SDS011;10739;52.198;20.908;2022-09-09T10:23:01;40.85;;;24.52;;
21162;SDS011;10739;52.198;20.908;2022-09-09T10:29:10;38.53;;;24.95;;
21162;SDS011;10739;52.198;20.908;2022-09-09T10:38:15;43.53;;;26.48;;
21162;SDS011;10739;52.198;20.908;2022-09-09T10:46:31;47.67;;;28.75;;
21162;SDS011;10739;52.198;20.908;2022-09-09T10:55:07;47.28;;;27.63;;
21162;SDS011;10739;52.198;20.908;2022-09-09T10:57:46;46.17;;;27.52;;
21162;SDS011;10739;52.198;20.908;2022-09-09T11:00:17;50.42;;;27.75;;
21162;SDS011;10739;52.198;20.908;2022-09-09T11:03:04;55.75;;;30.13;;
21162;SDS011;10739;52.198;20.908;2022-09-09T11:05:36;53.72;;;30.55;;
21162;SDS011;10739;52.198;20.908;2022-09-09T11:08:20;51.03;;;29.08;;
21162;SDS011;10739;52.198;20.908;2022-09-09T11:11:04;48.45;;;29.48;;
21162;SDS011;10739;52.198;20.908;2022-09-09T11:39:00;57.10;;;33.30;;
21162;SDS011;10739;52.198;20.908;2022-09-09T11:42:15;60.85;;;32.30;;
21162;SDS011;10739;52.198;20.908;2022-09-09T11:44:46;54.33;;;33.50;;
21162;SDS011;10739;52.198;20.908;2022-09-09T11:47:21;57.15;;;34.13;;
21162;SDS011;10739;52.198;20.908;2022-09-09T11:49:55;59.17;;;33.50;;
21162;SDS011;10739;52.198;20.908;2022-09-09T11:52:43;65.90;;;34.70;;
21162;SDS011;10739;52.198;20.908;2022-09-09T11:58:00;65.25;;;38.25;;
21162;SDS011;10739;52.198;20.908;2022-09-09T12:00:28;62.67;;;37.45;;
21162;SDS011;10739;52.198;20.908;2022-09-09T12:06:29;68.53;;;37.53;;
21162;SDS011;10739;52.198;20.908;2022-09-09T12:09:09;67.75;;;38.28;;
21162;SDS011;10739;52.198;20.908;2022-09-09T12:17:22;65.63;;;36.28;;
21162;SDS011;10739;52.198;20.908;2022-09-09T12:20:03;63.10;;;36.97;;
21162;SDS011;10739;52.198;20.908;2022-09-09T12:28:55;64.55;;;38.45;;
21162;SDS011;10739;52.198;20.908;2022-09-09T12:31:34;70.47;;;39.08;;
21162;SDS011;10739;52.198;20.908;2022-09-09T12:37:15;63.72;;;35.95;;
21162;SDS011;10739;52.198;20.908;2022-09-09T12:40:03;65.20;;;36.97;;
21162;SDS011;10739;52.198;20.908;2022-09-09T12:42:43;70.40;;;38.58;;
21162;SDS011;10739;52.198;20.908;2022-09-09T12:45:20;63.70;;;38.13;;
21162;SDS011;10739;52.198;20.908;2022-09-09T12:47:55;67.93;;;38.10;;
21162;SDS011;10739;52.198;20.908;2022-09-09T12:50:36;66.65;;;38.83;;
21162;SDS011;10739;52.198;20.908;2022-09-09T12:55:59;72.15;;;39.55;;
21162;SDS011;10739;52.198;20.908;2022-09-09T12:58:35;66.75;;;38.45;;
21162;SDS011;10739;52.198;20.908;2022-09-09T13:01:04;72.72;;;39.75;;
21162;SDS011;10739;52.198;20.908;2022-09-09T13:03:32;67.43;;;37.10;;
21162;SDS011;10739;52.198;20.908;2022-09-09T13:06:21;68.57;;;38.20;;
21162;SDS011;10739;52.198;20.908;2022-09-09T13:08:49;65.13;;;36.53;;
21162;SDS011;10739;52.198;20.908;2022-09-09T13:11:52;66.68;;;37.35;;
21162;SDS011;10739;52.198;20.908;2022-09-09T13:14:30;78.88;;;39.05;;
21162;SDS011;10739;52.198;20.908;2022-09-09T13:17:05;66.07;;;38.25;;
21162;SDS011;10739;52.198;20.908;2022-09-09T13:19:48;69.78;;;38.22;;
21162;SDS011;10739;52.198;20.908;2022-09-09T13:22:39;70.55;;;38.50;;
21162;SDS011;10739;52.198;20.908;2022-09-09T13:25:17;69.60;;;38.65;;
21162;SDS011;10739;52.198;20.908;2022-09-09T13:28:02;71.13;;;38.80;;
21162;SDS011;10739;52.198;20.908;2022-09-09T13:30:32;66.45;;;36.13;;
21162;SDS011;10739;52.198;20.908;2022-09-09T13:33:18;72.00;;;38.13;;
21162;SDS011;10739;52.198;20.908;2022-09-09T13:35:58;75.78;;;38.15;;
21162;SDS011;10739;52.198;20.908;2022-09-09T13:38:33;62.92;;;36.47;;
21162;SDS011;10739;52.198;20.908;2022-09-09T13:41:21;72.38;;;37.20;;
21162;SDS011;10739;52.198;20.908;2022-09-09T13:43:51;68.65;;;38.42;;
21162;SDS011;10739;52.198;20.908;2022-09-09T13:46:41;75.30;;;38.60;;
21162;SDS011;10739;52.198;20.908;2022-09-09T13:51:38;78.13;;;40.22;;
21162;SDS011;10739;52.198;20.908;2022-09-09T13:54:10;74.97;;;40.92;;
21162;SDS011;10739;52.198;20.908;2022-09-09T13:56:38;72.03;;;39.22;;
21162;SDS011;10739;52.198;20.908;2022-09-09T13:59:24;75.75;;;39.95;;
21162;SDS011;10739;52.198;20.908;2022-09-09T14:01:51;77.38;;;39.95;;
21162;SDS011;10739;52.198;20.908;2022-09-09T14:04:17;81.63;;;39.92;;
21162;SDS011;10739;52.198;20.908;2022-09-09T14:06:46;86.00;;;41.55;;
21162;SDS011;10739;52.198;20.908;2022-09-09T14:09:15;76.78;;;42.03;;
21162;SDS011;10739;52.198;20.908;2022-09-09T14:11:44;76.43;;;42.20;;
21162;SDS011;10739;52.198;20.908;2022-09-09T14:14:11;87.32;;;41.33;;
21162;SDS011;10739;52.198;20.908;2022-09-09T14:16:38;79.80;;;41.90;;
21162;SDS011;10739;52.198;20.908;2022-09-09T14:19:04;75.63;;;39.65;;
21162;SDS011;10739;52.198;20.908;2022-09-09T14:21:30;81.40;;;41.92;;
21162;SDS011;10739;52.198;20.908;2022-09-09T14:23:57;80.18;;;37.63;;
21162;SDS011;10739;52.198;20.908;2022-09-09T14:26:24;88.30;;;40.75;;
21162;SDS011;10739;52.198;20.908;2022-09-09T14:28:51;77.72;;;38.33;;
21162;SDS011;10739;52.198;20.908;2022-09-09T14:31:17;69.32;;;35.65;;
21162;SDS011;10739;52.198;20.908;2022-09-09T14:33:44;71.57;;;37.40;;
21162;SDS011;10739;52.198;20.908;2022-09-09T14:36:10;68.25;;;35.65;;
21162;SDS011;10739;52.198;20.908;2022-09-09T14:38:37;73.32;;;36.15;;
21162;SDS011;10739;52.198;20.908;2022-09-09T14:41:11;69.88;;;36.42;;
21162;SDS011;10739;52.198;20.908;2022-09-09T14:43:44;69.72;;;35.53;;
21162;SDS011;10739;52.198;20.908;2022-09-09T14:46:12;70.18;;;34.97;;
21162;SDS011;10739;52.198;20.908;2022-09-09T14:48:41;70.85;;;36.40;;
21162;SDS011;10739;52.198;20.908;2022-09-09T14:51:19;73.97;;;36.03;;
21162;SDS011;10739;52.198;20.908;2022-09-09T14:53:50;69.03;;;35.25;;
21162;SDS011;10739;52.198;20.908;2022-09-09T14:56:19;79.95;;;37.78;;
21162;SDS011;10739;52.198;20.908;2022-09-09T14:58:48;76.28;;;37.25;;
21162;SDS011;10739;52.198;20.908;2022-09-09T15:01:17;69.50;;;35.00;;
21162;SDS011;10739;52.198;20.908;2022-09-09T15:03:53;70.95;;;36.00;;
21162;SDS011;10739;52.198;20.908;2022-09-09T15:06:23;76.05;;;37.55;;
21162;SDS011;10739;52.198;20.908;2022-09-09T15:08:52;70.65;;;34.47;;
21162;SDS011;10739;52.198;20.908;2022-09-09T15:11:19;66.45;;;35.15;;
21162;SDS011;10739;52.198;20.908;2022-09-09T15:13:50;75.20;;;36.03;;
21162;SDS011;10739;52.198;20.908;2022-09-09T15:16:18;68.43;;;35.40;;
21162;SDS011;10739;52.198;20.908;2022-09-09T15:18:50;70.55;;;34.88;;
21162;SDS011;10739;52.198;20.908;2022-09-09T15:21:22;66.60;;;34.42;;
21162;SDS011;10739;52.198;20.908;2022-09-09T15:23:54;65.80;;;33.72;;
21162;SDS011;10739;52.198;20.908;2022-09-09T15:26:23;64.32;;;31.95;;
21162;SDS011;10739;52.198;20.908;2022-09-09T15:28:52;62.55;;;31.05;;
21162;SDS011;10739;52.198;20.908;2022-09-09T15:31:20;55.83;;;31.17;;
21162;SDS011;10739;52.198;20.908;2022-09-09T15:33:56;59.38;;;30.98;;
21162;SDS011;10739;52.198;20.908;2022-09-09T15:36:29;58.17;;;31.00;;
21162;SDS011;10739;52.198;20.908;2022-09-09T15:39:08;56.35;;;30.13;;
21162;SDS011;10739;52.198;20.908;2022-09-09T15:41:38;51.55;;;30.10;;
21162;SDS011;10739;52.198;20.908;2022-09-09T15:44:06;53.17;;;31.45;;
21162;SDS011;10739;52.198;20.908;2022-09-09T15:46:37;51.85;;;30.38;;
21162;SDS011;10739;52.198;20.908;2022-09-09T15:49:15;54.30;;;30.67;;
21162;SDS011;10739;52.198;20.908;2022-09-09T15:51:51;55.28;;;31.05;;
21162;SDS011;10739;52.198;20.908;2022-09-09T15:54:24;54.78;;;30.92;;
21162;SDS011;10739;52.198;20.908;2022-09-09T15:56:53;57.17;;;31.45;;
21162;SDS011;10739;52.198;20.908;2022-09-09T15:59:25;51.83;;;31.73;;
21162;SDS011;10739;52.198;20.908;2022-09-09T16:01:54;56.40;;;32.58;;
21162;SDS011;10739;52.198;20.908;2022-09-09T16:04:22;57.60;;;31.70;;
21162;SDS011;10739;52.198;20.908;2022-09-09T16:06:53;50.60;;;30.98;;
21162;SDS011;10739;52.198;20.908;2022-09-09T16:09:28;53.70;;;31.90;;
21162;SDS011;10739;52.198;20.908;2022-09-09T16:11:57;53.08;;;29.02;;
21162;SDS011;10739;52.198;20.908;2022-09-09T16:14:26;61.78;;;32.22;;
21162;SDS011;10739;52.198;20.908;2022-09-09T16:16:53;57.30;;;31.33;;
21162;SDS011;10739;52.198;20.908;2022-09-09T16:19:19;51.85;;;31.45;;
21162;SDS011;10739;52.198;20.908;2022-09-09T16:21:46;53.70;;;31.98;;
21162;SDS011;10739;52.198;20.908;2022-09-09T16:24:16;49.03;;;29.33;;
21162;SDS011;10739;52.198;20.908;2022-09-09T16:26:48;54.58;;;30.45;;
21162;SDS011;10739;52.198;20.908;2022-09-09T16:29:18;55.67;;;31.42;;
21162;SDS011;10739;52.198;20.908;2022-09-09T16:31:45;53.90;;;31.92;;
21162;SDS011;10739;52.198;20.908;2022-09-09T16:34:12;55.33;;;32.05;;
21162;SDS011;10739;52.198;20.908;2022-09-09T16:36:40;50.25;;;30.05;;
21162;SDS011;10739;52.198;20.908;2022-09-09T16:39:09;54.83;;;32.55;;
21162;SDS011;10739;52.198;20.908;2022-09-09T16:41:39;56.72;;;34.10;;
21162;SDS011;10739;52.198;20.908;2022-09-09T16:44:09;60.90;;;34.58;;
21162;SDS011;10739;52.198;20.908;2022-09-09T16:46:39;65.57;;;35.40;;
21162;SDS011;10739;52.198;20.908;2022-09-09T16:49:21;66.97;;;36.80;;
21162;SDS011;10739;52.198;20.908;2022-09-09T16:51:50;70.35;;;37.45;;
21162;SDS011;10739;52.198;20.908;2022-09-09T16:54:19;62.70;;;35.95;;
21162;SDS011;10739;52.198;20.908;2022-09-09T16:56:46;62.22;;;34.60;;
21162;SDS011;10739;52.198;20.908;2022-09-09T16:59:15;60.42;;;34.00;;
21162;SDS011;10739;52.198;20.908;2022-09-09T17:01:45;59.67;;;34.97;;
21162;SDS011;10739;52.198;20.908;2022-09-09T17:04:14;55.95;;;32.72;;
21162;SDS011;10739;52.198;20.908;2022-09-09T17:06:49;56.05;;;33.75;;
21162;SDS011;10739;52.198;20.908;2022-09-09T17:09:19;59.25;;;36.03;;